Main page
METAR-TAF:

METAR-TAF

Airports :

Agra Airport

Agra, India

latitude: 27-09-27N, longitude: 077-57-39E, elevation: 168 m

METAR: missing

Time: 13:30 (08:00 UTC)

Forecast

The report was made 4 hours and 30 minutes ago, at 03:30 UTC
Forecast valid from 30 at 06 UTC to 30 at 18 UTC
Wind 10 kt from the West/Southwest
Visibility: 6000 m
Scattered clouds at a height of 1500 ft
Scattered clouds at a height of 2500 ft
Broken clouds at a height of 9000 ft
Temporary
from 30 at 09 UTC to 30 at 14 UTC
Wind 10 kt from the North/Northeast
Visibility: 3000 m
Broken clouds at a height of 800 ft
Scattered clouds at a height of 1500 ft
Scattered clouds at a height of 2500 ft
Few clouds at a height of 3000 ft, Cumulonimbus.
Broken clouds at a height of 9000 ft
thunderstorm, light rain, mist

TAF: VIAG 300330Z 3006/3018 25010KT 6000 SCT015 SCT025 BKN090 TEMPO 3009/3014 02010KT 3000 -TSRABR BKN008 SCT015 SCT025 FEW030CB BKN090

Weather observations and forecasts of more than 4000 airports (METAR and TAF reports).

The available stations are represented by yellow and red dots on the map.

Hover mouse over dot to see the name of the station.

Then click to see weather observations and forecasts.

To change the map : click on the green buttons with a black cross to zoom in, on the green button with a dash to zoom out, or on the green arrows for adjacent maps.


METAR-TAF: